sensor_id;sensor_type;location;lat;lon;timestamp;pressure;altitude;pressure_sealevel;temperature;humidity
10064;BME280;5071;52.360;13.134;2023-08-30T00:05:02;100279.34;;;13.73;100.00
10064;BME280;5071;52.360;13.134;2023-08-30T00:10:06;100263.34;;;13.73;100.00
10064;BME280;5071;52.360;13.134;2023-08-30T00:15:10;100272.75;;;13.56;100.00
10064;BME280;5071;52.360;13.134;2023-08-30T00:20:12;100275.03;;;13.69;100.00
10064;BME280;5071;52.360;13.134;2023-08-30T00:25:15;100285.28;;;13.54;100.00
10064;BME280;5071;52.360;13.134;2023-08-30T00:30:18;100281.84;;;13.51;100.00
10064;BME280;5071;52.360;13.134;2023-08-30T00:35:21;100271.13;;;13.52;100.00
10064;BME280;5071;52.360;13.134;2023-08-30T00:40:24;100273.78;;;13.52;100.00
10064;BME280;5071;52.360;13.134;2023-08-30T00:45:28;100279.56;;;13.67;100.00
10064;BME280;5071;52.360;13.134;2023-08-30T00:50:30;100279.56;;;13.67;100.00
10064;BME280;5071;52.360;13.134;2023-08-30T00:55:33;100283.75;;;13.74;100.00
10064;BME280;5071;52.360;13.134;2023-08-30T01:00:38;100292.66;;;13.46;100.00
10064;BME280;5071;52.360;13.134;2023-08-30T01:05:41;100288.88;;;13.53;100.00
10064;BME280;5071;52.360;13.134;2023-08-30T01:10:50;100291.34;;;13.30;100.00
10064;BME280;5071;52.360;13.134;2023-08-30T01:15:56;100286.09;;;13.27;100.00
10064;BME280;5071;52.360;13.134;2023-08-30T01:21:01;100284.72;;;13.13;100.00
10064;BME280;5071;52.360;13.134;2023-08-30T01:26:08;100292.91;;;13.07;100.00
10064;BME280;5071;52.360;13.134;2023-08-30T01:31:12;100293.28;;;13.54;100.00
10064;BME280;5071;52.360;13.134;2023-08-30T01:36:15;100308.38;;;13.55;100.00
10064;BME280;5071;52.360;13.134;2023-08-30T01:41:18;100312.19;;;13.47;100.00
10064;BME280;5071;52.360;13.134;2023-08-30T01:46:22;100310.84;;;13.61;100.00
10064;BME280;5071;52.360;13.134;2023-08-30T01:51:26;100310.13;;;13.55;100.00
10064;BME280;5071;52.360;13.134;2023-08-30T01:56:28;100303.13;;;13.52;100.00
10064;BME280;5071;52.360;13.134;2023-08-30T02:01:31;100298.59;;;13.54;100.00
10064;BME280;5071;52.360;13.134;2023-08-30T02:06:39;100299.38;;;13.58;100.00
10064;BME280;5071;52.360;13.134;2023-08-30T02:11:44;100295.94;;;13.54;100.00
10064;BME280;5071;52.360;13.134;2023-08-30T02:16:49;100296.34;;;13.42;100.00
10064;BME280;5071;52.360;13.134;2023-08-30T02:21:51;100293.88;;;13.63;100.00
10064;BME280;5071;52.360;13.134;2023-08-30T02:26:54;100295.84;;;13.57;100.00
10064;BME280;5071;52.360;13.134;2023-08-30T02:31:57;100296.56;;;13.63;100.00
10064;BME280;5071;52.360;13.134;2023-08-30T02:37:00;100291.88;;;13.71;100.00
10064;BME280;5071;52.360;13.134;2023-08-30T02:42:02;100268.50;;;13.51;100.00
10064;BME280;5071;52.360;13.134;2023-08-30T02:47:05;100275.19;;;13.36;100.00
10064;BME280;5071;52.360;13.134;2023-08-30T02:52:08;100264.78;;;13.27;100.00
10064;BME280;5071;52.360;13.134;2023-08-30T02:57:10;100259.69;;;13.19;100.00
10064;BME280;5071;52.360;13.134;2023-08-30T03:02:13;100252.94;;;13.07;100.00
10064;BME280;5071;52.360;13.134;2023-08-30T03:07:15;100251.13;;;13.09;100.00
10064;BME280;5071;52.360;13.134;2023-08-30T03:12:17;100251.44;;;13.27;100.00
10064;BME280;5071;52.360;13.134;2023-08-30T03:17:20;100249.56;;;13.02;100.00
10064;BME280;5071;52.360;13.134;2023-08-30T03:22:23;100255.81;;;13.01;100.00
10064;BME280;5071;52.360;13.134;2023-08-30T03:27:25;100260.13;;;13.05;100.00
10064;BME280;5071;52.360;13.134;2023-08-30T03:32:28;100255.34;;;13.16;100.00
10064;BME280;5071;52.360;13.134;2023-08-30T03:37:30;100255.91;;;12.98;100.00
10064;BME280;5071;52.360;13.134;2023-08-30T03:42:33;100270.34;;;12.89;100.00
10064;BME280;5071;52.360;13.134;2023-08-30T03:47:36;100262.59;;;13.11;100.00
10064;BME280;5071;52.360;13.134;2023-08-30T03:52:38;100260.31;;;12.99;100.00
10064;BME280;5071;52.360;13.134;2023-08-30T03:57:41;100255.00;;;12.99;100.00
10064;BME280;5071;52.360;13.134;2023-08-30T04:02:44;100246.09;;;13.28;100.00
10064;BME280;5071;52.360;13.134;2023-08-30T04:07:46;100249.03;;;13.19;100.00
10064;BME280;5071;52.360;13.134;2023-08-30T04:12:48;100250.84;;;13.18;100.00
10064;BME280;5071;52.360;13.134;2023-08-30T04:17:52;100250.91;;;13.15;100.00
10064;BME280;5071;52.360;13.134;2023-08-30T04:22:54;100257.91;;;13.19;100.00
10064;BME280;5071;52.360;13.134;2023-08-30T04:27:56;100264.78;;;13.27;100.00
10064;BME280;5071;52.360;13.134;2023-08-30T04:33:00;100262.22;;;13.23;100.00
10064;BME280;5071;52.360;13.134;2023-08-30T04:38:02;100266.53;;;13.28;100.00
10064;BME280;5071;52.360;13.134;2023-08-30T04:43:04;100271.41;;;13.43;100.00
10064;BME280;5071;52.360;13.134;2023-08-30T04:48:07;100278.59;;;13.41;100.00
10064;BME280;5071;52.360;13.134;2023-08-30T04:53:10;100290.53;;;13.57;100.00
10064;BME280;5071;52.360;13.134;2023-08-30T04:58:12;100290.47;;;14.12;100.00
10064;BME280;5071;52.360;13.134;2023-08-30T05:03:15;100295.22;;;14.29;100.00
10064;BME280;5071;52.360;13.134;2023-08-30T05:08:17;100301.38;;;14.31;100.00
10064;BME280;5071;52.360;13.134;2023-08-30T05:13:19;100308.66;;;14.53;100.00
10064;BME280;5071;52.360;13.134;2023-08-30T05:18:22;100302.06;;;14.63;100.00
10064;BME280;5071;52.360;13.134;2023-08-30T05:23:24;100310.47;;;14.77;100.00
10064;BME280;5071;52.360;13.134;2023-08-30T05:28:26;100308.56;;;15.05;100.00
10064;BME280;5071;52.360;13.134;2023-08-30T05:33:30;100294.13;;;15.09;100.00
10064;BME280;5071;52.360;13.134;2023-08-30T05:38:32;100292.38;;;15.31;100.00
10064;BME280;5071;52.360;13.134;2023-08-30T05:43:34;100295.28;;;15.49;100.00
10064;BME280;5071;52.360;13.134;2023-08-30T05:48:41;100297.50;;;15.60;100.00
10064;BME280;5071;52.360;13.134;2023-08-30T05:53:43;100298.75;;;15.73;100.00
10064;BME280;5071;52.360;13.134;2023-08-30T05:58:45;100287.03;;;15.77;100.00
10064;BME280;5071;52.360;13.134;2023-08-30T06:03:49;100282.53;;;16.00;100.00
10064;BME280;5071;52.360;13.134;2023-08-30T06:08:51;100279.47;;;16.29;100.00
10064;BME280;5071;52.360;13.134;2023-08-30T06:13:53;100276.75;;;15.88;100.00
10064;BME280;5071;52.360;13.134;2023-08-30T06:18:57;100278.78;;;16.65;100.00
10064;BME280;5071;52.360;13.134;2023-08-30T06:23:59;100275.69;;;16.54;100.00
10064;BME280;5071;52.360;13.134;2023-08-30T06:29:02;100282.91;;;16.93;100.00
10064;BME280;5071;52.360;13.134;2023-08-30T06:34:07;100278.91;;;16.62;100.00
10064;BME280;5071;52.360;13.134;2023-08-30T06:39:09;100263.63;;;17.04;99.76
10064;BME280;5071;52.360;13.134;2023-08-30T06:44:12;100267.34;;;17.01;100.00
10064;BME280;5071;52.360;13.134;2023-08-30T06:49:15;100273.91;;;16.94;100.00
10064;BME280;5071;52.360;13.134;2023-08-30T06:54:21;100272.44;;;16.87;100.00
10064;BME280;5071;52.360;13.134;2023-08-30T06:59:24;100269.56;;;16.92;100.00
10064;BME280;5071;52.360;13.134;2023-08-30T07:04:27;100261.13;;;16.80;100.00
10064;BME280;5071;52.360;13.134;2023-08-30T07:09:31;100269.72;;;16.88;100.00
10064;BME280;5071;52.360;13.134;2023-08-30T07:14:33;100266.91;;;17.10;99.79
10064;BME280;5071;52.360;13.134;2023-08-30T07:19:36;100270.75;;;17.24;99.61
10064;BME280;5071;52.360;13.134;2023-08-30T07:24:38;100266.16;;;17.45;100.00
10064;BME280;5071;52.360;13.134;2023-08-30T07:29:40;100271.44;;;18.19;94.74
10064;BME280;5071;52.360;13.134;2023-08-30T07:34:44;100265.69;;;18.60;92.86
10064;BME280;5071;52.360;13.134;2023-08-30T07:39:47;100258.38;;;17.94;94.72
10064;BME280;5071;52.360;13.134;2023-08-30T07:44:49;100256.28;;;19.18;88.07
10064;BME280;5071;52.360;13.134;2023-08-30T07:49:53;100260.28;;;19.43;87.62
10064;BME280;5071;52.360;13.134;2023-08-30T07:54:56;100271.75;;;19.78;82.98
10064;BME280;5071;52.360;13.134;2023-08-30T07:59:58;100260.91;;;20.10;85.23
10064;BME280;5071;52.360;13.134;2023-08-30T08:05:01;100268.72;;;20.88;77.36
10064;BME280;5071;52.360;13.134;2023-08-30T08:10:05;100266.00;;;19.85;84.15
10064;BME280;5071;52.360;13.134;2023-08-30T08:15:07;100272.53;;;20.11;82.04
10064;BME280;5071;52.360;13.134;2023-08-30T08:20:11;100279.91;;;20.37;81.60
10064;BME280;5071;52.360;13.134;2023-08-30T08:25:14;100280.88;;;20.95;78.49
10064;BME280;5071;52.360;13.134;2023-08-30T08:30:16;100282.59;;;20.68;80.06
10064;BME280;5071;52.360;13.134;2023-08-30T08:35:19;100269.44;;;20.47;80.98
10064;BME280;5071;52.360;13.134;2023-08-30T08:40:22;100271.50;;;21.44;77.85
10064;BME280;5071;52.360;13.134;2023-08-30T08:45:43;100275.22;;;21.56;78.65
10064;BME280;5071;52.360;13.134;2023-08-30T08:50:48;100270.41;;;22.01;73.95
10064;BME280;5071;52.360;13.134;2023-08-30T08:55:51;100272.72;;;22.73;68.07
10064;BME280;5071;52.360;13.134;2023-08-30T09:00:54;100274.19;;;23.03;66.97
10064;BME280;5071;52.360;13.134;2023-08-30T09:05:59;100263.81;;;22.71;71.33
10064;BME280;5071;52.360;13.134;2023-08-30T09:11:01;100269.44;;;22.55;68.83
10064;BME280;5071;52.360;13.134;2023-08-30T09:16:11;100259.81;;;22.11;72.94
10064;BME280;5071;52.360;13.134;2023-08-30T09:21:15;100267.06;;;23.02;68.39
10064;BME280;5071;52.360;13.134;2023-08-30T09:26:18;100262.97;;;24.18;62.35
10064;BME280;5071;52.360;13.134;2023-08-30T09:31:20;100271.16;;;25.33;56.73
10064;BME280;5071;52.360;13.134;2023-08-30T09:36:25;100266.66;;;28.90;51.29
10064;BME280;5071;52.360;13.134;2023-08-30T09:41:27;100274.13;;;29.99;49.04
10064;BME280;5071;52.360;13.134;2023-08-30T09:46:29;100267.44;;;29.10;47.85
10064;BME280;5071;52.360;13.134;2023-08-30T09:51:54;100258.19;;;29.49;46.33
10064;BME280;5071;52.360;13.134;2023-08-30T09:56:59;100255.34;;;30.40;42.03
10064;BME280;5071;52.360;13.134;2023-08-30T10:02:01;100246.09;;;29.69;43.37
10064;BME280;5071;52.360;13.134;2023-08-30T10:07:06;100242.34;;;28.30;48.93
10064;BME280;5071;52.360;13.134;2023-08-30T10:12:10;100222.63;;;26.98;50.12
10064;BME280;5071;52.360;13.134;2023-08-30T10:17:14;100216.19;;;25.18;53.60
10064;BME280;5071;52.360;13.134;2023-08-30T10:22:20;100212.88;;;26.44;50.54
10064;BME280;5071;52.360;13.134;2023-08-30T10:27:24;100221.25;;;25.34;51.97
10064;BME280;5071;52.360;13.134;2023-08-30T10:32:28;100218.56;;;26.83;47.81
10064;BME280;5071;52.360;13.134;2023-08-30T10:37:31;100230.81;;;25.60;51.38
10064;BME280;5071;52.360;13.134;2023-08-30T10:42:38;100235.22;;;24.73;54.95
10064;BME280;5071;52.360;13.134;2023-08-30T10:47:40;100233.25;;;24.75;53.38
10064;BME280;5071;52.360;13.134;2023-08-30T10:52:54;100231.31;;;24.41;54.07
10064;BME280;5071;52.360;13.134;2023-08-30T10:58:00;100241.88;;;24.69;52.30
10064;BME280;5071;52.360;13.134;2023-08-30T11:03:03;100234.00;;;24.19;53.67
10064;BME280;5071;52.360;13.134;2023-08-30T11:08:10;100251.63;;;25.05;53.26
10064;BME280;5071;52.360;13.134;2023-08-30T11:13:14;100244.38;;;25.72;50.11
10064;BME280;5071;52.360;13.134;2023-08-30T11:18:18;100235.91;;;25.54;52.45
10064;BME280;5071;52.360;13.134;2023-08-30T11:23:22;100240.53;;;25.31;51.13
10064;BME280;5071;52.360;13.134;2023-08-30T11:28:25;100229.31;;;24.21;53.37
10064;BME280;5071;52.360;13.134;2023-08-30T11:33:27;100226.63;;;22.62;59.36
10064;BME280;5071;52.360;13.134;2023-08-30T11:38:30;100223.16;;;22.47;60.47
10064;BME280;5071;52.360;13.134;2023-08-30T11:43:33;100218.91;;;22.68;60.53
10064;BME280;5071;52.360;13.134;2023-08-30T11:48:35;100212.72;;;21.75;62.40
10064;BME280;5071;52.360;13.134;2023-08-30T11:53:39;100224.31;;;22.43;62.29
10064;BME280;5071;52.360;13.134;2023-08-30T11:58:42;100222.56;;;22.80;60.72
10064;BME280;5071;52.360;13.134;2023-08-30T12:03:44;100211.59;;;23.68;56.53
10064;BME280;5071;52.360;13.134;2023-08-30T12:08:48;100217.50;;;24.22;53.26
10064;BME280;5071;52.360;13.134;2023-08-30T12:13:50;100207.69;;;22.99;55.39
10064;BME280;5071;52.360;13.134;2023-08-30T12:18:52;100216.81;;;25.33;50.22
10064;BME280;5071;52.360;13.134;2023-08-30T12:24:00;100213.75;;;27.06;47.11
10064;BME280;5071;52.360;13.134;2023-08-30T12:29:02;100195.00;;;25.55;47.71
10064;BME280;5071;52.360;13.134;2023-08-30T12:34:05;100188.59;;;26.10;47.53
10064;BME280;5071;52.360;13.134;2023-08-30T12:39:08;100186.81;;;25.12;46.72
10064;BME280;5071;52.360;13.134;2023-08-30T12:44:10;100185.91;;;24.21;51.84
10064;BME280;5071;52.360;13.134;2023-08-30T12:49:13;100183.72;;;22.81;54.02
10064;BME280;5071;52.360;13.134;2023-08-30T12:54:16;100187.09;;;22.72;57.01
10064;BME280;5071;52.360;13.134;2023-08-30T12:59:18;100174.94;;;21.48;58.88
10064;BME280;5071;52.360;13.134;2023-08-30T13:04:20;100177.81;;;22.50;58.95
10064;BME280;5071;52.360;13.134;2023-08-30T13:09:24;100174.31;;;24.08;54.25
10064;BME280;5071;52.360;13.134;2023-08-30T13:14:26;100179.59;;;24.78;52.67
10064;BME280;5071;52.360;13.134;2023-08-30T13:19:28;100174.09;;;24.22;49.88
10064;BME280;5071;52.360;13.134;2023-08-30T13:24:31;100172.94;;;23.78;53.71
10064;BME280;5071;52.360;13.134;2023-08-30T13:29:34;100174.31;;;24.08;54.56
10064;BME280;5071;52.360;13.134;2023-08-30T13:34:36;100159.25;;;23.44;57.31
10064;BME280;5071;52.360;13.134;2023-08-30T13:39:39;100164.97;;;23.76;55.57
10064;BME280;5071;52.360;13.134;2023-08-30T13:44:41;100167.03;;;24.08;55.95
10064;BME280;5071;52.360;13.134;2023-08-30T13:49:43;100158.97;;;24.98;52.77
10064;BME280;5071;52.360;13.134;2023-08-30T13:54:47;100162.25;;;25.13;50.94
10064;BME280;5071;52.360;13.134;2023-08-30T13:59:49;100151.72;;;24.54;54.82
10064;BME280;5071;52.360;13.134;2023-08-30T14:04:51;100146.84;;;24.23;52.69
10064;BME280;5071;52.360;13.134;2023-08-30T14:09:55;100143.88;;;24.15;51.20
10064;BME280;5071;52.360;13.134;2023-08-30T14:14:57;100137.59;;;24.26;51.09
10064;BME280;5071;52.360;13.134;2023-08-30T14:19:59;100146.88;;;24.46;52.74
10064;BME280;5071;52.360;13.134;2023-08-30T14:25:04;100149.59;;;24.46;52.75
10064;BME280;5071;52.360;13.134;2023-08-30T14:30:14;100145.06;;;23.05;52.60
10064;BME280;5071;52.360;13.134;2023-08-30T14:35:17;100149.22;;;23.57;52.76
10064;BME280;5071;52.360;13.134;2023-08-30T14:40:20;100147.09;;;24.20;52.26
10064;BME280;5071;52.360;13.134;2023-08-30T14:45:23;100135.38;;;24.20;53.57
10064;BME280;5071;52.360;13.134;2023-08-30T14:50:25;100142.22;;;23.90;52.99
10064;BME280;5071;52.360;13.134;2023-08-30T14:55:28;100138.81;;;23.03;55.37
10064;BME280;5071;52.360;13.134;2023-08-30T15:00:30;100132.22;;;22.70;55.98
10064;BME280;5071;52.360;13.134;2023-08-30T15:05:34;100126.28;;;22.52;56.42
10064;BME280;5071;52.360;13.134;2023-08-30T15:10:37;100127.09;;;22.41;55.45
10064;BME280;5071;52.360;13.134;2023-08-30T15:15:39;100138.97;;;22.13;56.54
10064;BME280;5071;52.360;13.134;2023-08-30T15:20:41;100135.75;;;22.34;58.02
10064;BME280;5071;52.360;13.134;2023-08-30T15:25:45;100130.72;;;22.14;60.01
10064;BME280;5071;52.360;13.134;2023-08-30T15:30:48;100124.34;;;22.16;60.16
10064;BME280;5071;52.360;13.134;2023-08-30T15:35:50;100129.53;;;21.80;60.54
10064;BME280;5071;52.360;13.134;2023-08-30T15:40:54;100123.22;;;21.40;62.19
10064;BME280;5071;52.360;13.134;2023-08-30T15:45:56;100119.84;;;21.50;62.36
10064;BME280;5071;52.360;13.134;2023-08-30T15:50:59;100119.75;;;21.52;62.67
10064;BME280;5071;52.360;13.134;2023-08-30T15:56:03;100109.13;;;20.94;65.46
10064;BME280;5071;52.360;13.134;2023-08-30T16:01:05;100112.88;;;21.06;65.25
10064;BME280;5071;52.360;13.134;2023-08-30T16:06:07;100110.38;;;21.03;65.93
10064;BME280;5071;52.360;13.134;2023-08-30T16:11:11;100119.78;;;20.83;67.54
10064;BME280;5071;52.360;13.134;2023-08-30T16:16:14;100120.38;;;20.74;69.52
10064;BME280;5071;52.360;13.134;2023-08-30T16:21:16;100115.00;;;20.45;69.23
10064;BME280;5071;52.360;13.134;2023-08-30T16:26:19;100119.69;;;19.98;73.06
10064;BME280;5071;52.360;13.134;2023-08-30T16:31:28;100111.16;;;19.61;74.31
10064;BME280;5071;52.360;13.134;2023-08-30T16:36:30;100122.81;;;19.46;76.54
10064;BME280;5071;52.360;13.134;2023-08-30T16:41:34;100115.66;;;19.31;76.90
10064;BME280;5071;52.360;13.134;2023-08-30T16:46:38;100108.03;;;19.23;77.38
10064;BME280;5071;52.360;13.134;2023-08-30T16:51:40;100105.78;;;18.99;78.70
10064;BME280;5071;52.360;13.134;2023-08-30T16:56:44;100101.41;;;18.98;78.65
10064;BME280;5071;52.360;13.134;2023-08-30T17:01:46;100089.91;;;18.63;80.69
10064;BME280;5071;52.360;13.134;2023-08-30T17:06:48;100093.97;;;18.54;80.00
10064;BME280;5071;52.360;13.134;2023-08-30T17:11:52;100086.09;;;18.51;81.19
10064;BME280;5071;52.360;13.134;2023-08-30T17:16:54;100094.63;;;18.26;83.49
10064;BME280;5071;52.360;13.134;2023-08-30T17:21:56;100086.50;;;17.77;87.26
10064;BME280;5071;52.360;13.134;2023-08-30T17:26:59;100082.75;;;17.46;90.46
10064;BME280;5071;52.360;13.134;2023-08-30T17:32:01;100082.41;;;17.17;91.04
10064;BME280;5071;52.360;13.134;2023-08-30T17:37:03;100083.09;;;17.03;92.89
10064;BME280;5071;52.360;13.134;2023-08-30T17:42:06;100079.50;;;17.04;92.42
10064;BME280;5071;52.360;13.134;2023-08-30T17:47:08;100072.78;;;16.77;92.78
10064;BME280;5071;52.360;13.134;2023-08-30T17:52:10;100087.63;;;16.46;94.09
10064;BME280;5071;52.360;13.134;2023-08-30T17:57:13;100087.31;;;16.14;96.32
10064;BME280;5071;52.360;13.134;2023-08-30T18:02:16;100088.25;;;15.94;96.67
10064;BME280;5071;52.360;13.134;2023-08-30T18:07:17;100095.16;;;15.79;97.74
10064;BME280;5071;52.360;13.134;2023-08-30T18:12:21;100098.47;;;15.64;100.00
10064;BME280;5071;52.360;13.134;2023-08-30T18:17:23;100093.25;;;15.40;100.00
10064;BME280;5071;52.360;13.134;2023-08-30T18:22:26;100094.97;;;15.21;100.00
10064;BME280;5071;52.360;13.134;2023-08-30T18:27:29;100093.03;;;15.24;100.00
10064;BME280;5071;52.360;13.134;2023-08-30T18:32:32;100090.91;;;15.10;100.00
10064;BME280;5071;52.360;13.134;2023-08-30T18:37:34;100095.72;;;15.02;100.00
10064;BME280;5071;52.360;13.134;2023-08-30T18:42:38;100094.50;;;14.89;100.00
10064;BME280;5071;52.360;13.134;2023-08-30T18:47:40;100104.84;;;14.74;100.00
10064;BME280;5071;52.360;13.134;2023-08-30T18:52:42;100102.19;;;14.74;100.00
10064;BME280;5071;52.360;13.134;2023-08-30T18:57:46;100102.06;;;14.54;100.00
10064;BME280;5071;52.360;13.134;2023-08-30T19:02:48;100093.34;;;14.49;100.00
10064;BME280;5071;52.360;13.134;2023-08-30T19:07:50;100092.22;;;14.32;100.00
10064;BME280;5071;52.360;13.134;2023-08-30T19:12:54;100094.44;;;14.21;100.00
10064;BME280;5071;52.360;13.134;2023-08-30T19:17:56;100089.44;;;14.12;100.00
10064;BME280;5071;52.360;13.134;2023-08-30T19:22:58;100087.69;;;14.11;100.00
10064;BME280;5071;52.360;13.134;2023-08-30T19:28:02;100084.69;;;14.20;100.00
10064;BME280;5071;52.360;13.134;2023-08-30T19:33:04;100084.19;;;14.56;100.00
10064;BME280;5071;52.360;13.134;2023-08-30T19:38:07;100101.16;;;14.55;100.00
10064;BME280;5071;52.360;13.134;2023-08-30T19:43:10;100096.22;;;14.90;100.00
10064;BME280;5071;52.360;13.134;2023-08-30T19:48:13;100096.53;;;14.82;100.00
10064;BME280;5071;52.360;13.134;2023-08-30T19:53:16;100096.38;;;14.87;100.00
10064;BME280;5071;52.360;13.134;2023-08-30T19:58:20;100095.16;;;15.16;100.00
10064;BME280;5071;52.360;13.134;2023-08-30T20:03:21;100090.38;;;15.24;100.00
10064;BME280;5071;52.360;13.134;2023-08-30T20:08:24;100092.78;;;15.51;99.05
10064;BME280;5071;52.360;13.134;2023-08-30T20:13:27;100087.63;;;15.87;96.50
10064;BME280;5071;52.360;13.134;2023-08-30T20:18:29;100090.81;;;15.77;97.32
10064;BME280;5071;52.360;13.134;2023-08-30T20:23:31;100093.28;;;15.81;96.33
10064;BME280;5071;52.360;13.134;2023-08-30T20:28:34;100082.81;;;15.34;99.35
10064;BME280;5071;52.360;13.134;2023-08-30T20:33:36;100085.47;;;15.13;100.00
10064;BME280;5071;52.360;13.134;2023-08-30T20:38:38;100085.53;;;14.90;100.00
10064;BME280;5071;52.360;13.134;2023-08-30T20:43:42;100070.63;;;14.84;100.00
10064;BME280;5071;52.360;13.134;2023-08-30T20:48:44;100072.00;;;14.72;100.00
10064;BME280;5071;52.360;13.134;2023-08-30T20:53:46;100066.22;;;14.61;100.00
10064;BME280;5071;52.360;13.134;2023-08-30T20:58:49;100062.63;;;14.38;100.00
10064;BME280;5071;52.360;13.134;2023-08-30T21:03:52;100060.31;;;14.29;100.00
10064;BME280;5071;52.360;13.134;2023-08-30T21:08:54;100057.41;;;14.12;100.00
10064;BME280;5071;52.360;13.134;2023-08-30T21:13:58;100048.53;;;13.88;100.00
10064;BME280;5071;52.360;13.134;2023-08-30T21:19:00;100048.22;;;13.72;100.00
10064;BME280;5071;52.360;13.134;2023-08-30T21:24:02;100051.34;;;13.59;100.00
10064;BME280;5071;52.360;13.134;2023-08-30T21:29:05;100046.00;;;13.59;100.00
10064;BME280;5071;52.360;13.134;2023-08-30T21:34:08;100035.66;;;13.50;100.00
10064;BME280;5071;52.360;13.134;2023-08-30T21:39:13;100030.38;;;13.49;100.00
10064;BME280;5071;52.360;13.134;2023-08-30T21:44:16;100029.75;;;13.42;100.00
10064;BME280;5071;52.360;13.134;2023-08-30T21:49:19;100026.03;;;13.46;100.00
10064;BME280;5071;52.360;13.134;2023-08-30T21:54:21;100031.25;;;13.49;100.00
10064;BME280;5071;52.360;13.134;2023-08-30T21:59:25;100030.91;;;13.84;100.00
10064;BME280;5071;52.360;13.134;2023-08-30T22:04:27;100031.25;;;13.49;100.00
10064;BME280;5071;52.360;13.134;2023-08-30T22:09:29;100030.47;;;13.46;100.00
10064;BME280;5071;52.360;13.134;2023-08-30T22:14:33;100031.41;;;13.70;100.00
10064;BME280;5071;52.360;13.134;2023-08-30T22:19:45;100020.44;;;13.77;100.00
10064;BME280;5071;52.360;13.134;2023-08-30T22:24:47;100022.47;;;13.94;100.00
10064;BME280;5071;52.360;13.134;2023-08-30T22:29:50;100034.50;;;14.52;100.00
10064;BME280;5071;52.360;13.134;2023-08-30T22:34:53;100049.06;;;14.89;100.00
10064;BME280;5071;52.360;13.134;2023-08-30T22:39:55;100063.81;;;14.97;100.00
10064;BME280;5071;52.360;13.134;2023-08-30T22:44:59;100064.94;;;14.92;100.00
10064;BME280;5071;52.360;13.134;2023-08-30T22:50:02;100061.78;;;14.82;100.00
10064;BME280;5071;52.360;13.134;2023-08-30T22:55:06;100064.38;;;15.28;100.00
10064;BME280;5071;52.360;13.134;2023-08-30T23:00:10;100061.53;;;15.31;99.63
10064;BME280;5071;52.360;13.134;2023-08-30T23:05:12;100064.50;;;15.45;97.32
10064;BME280;5071;52.360;13.134;2023-08-30T23:10:15;100062.50;;;15.50;97.56
10064;BME280;5071;52.360;13.134;2023-08-30T23:15:18;100056.66;;;15.41;99.39
10064;BME280;5071;52.360;13.134;2023-08-30T23:20:21;100055.91;;;15.37;98.50
10064;BME280;5071;52.360;13.134;2023-08-30T23:25:23;100054.13;;;15.17;100.00
10064;BME280;5071;52.360;13.134;2023-08-30T23:30:27;100061.84;;;15.03;100.00
10064;BME280;5071;52.360;13.134;2023-08-30T23:35:31;100054.84;;;15.00;100.00
10064;BME280;5071;52.360;13.134;2023-08-30T23:40:35;100066.84;;;15.32;100.00
10064;BME280;5071;52.360;13.134;2023-08-30T23:45:38;100066.84;;;15.32;99.25
10064;BME280;5071;52.360;13.134;2023-08-30T23:50:41;100062.69;;;15.46;97.25
10064;BME280;5071;52.360;13.134;2023-08-30T23:55:46;100064.78;;;15.39;95.22
